sensor_id;sensor_type;location;lat;lon;timestamp;pressure;altitude;pressure_sealevel;temperature;humidity
4410;BME280;2218;51.408;7.208;2023-12-04T00:01:16;99551.34;;;16.93;31.17
4410;BME280;2218;51.408;7.208;2023-12-04T00:03:43;99549.66;;;16.92;31.19
4410;BME280;2218;51.408;7.208;2023-12-04T00:06:11;99547.97;;;16.91;30.85
4410;BME280;2218;51.408;7.208;2023-12-04T00:08:38;99541.97;;;16.89;31.12
4410;BME280;2218;51.408;7.208;2023-12-04T00:11:06;99535.88;;;16.89;30.98
4410;BME280;2218;51.408;7.208;2023-12-04T00:13:33;99530.72;;;16.87;30.88
4410;BME280;2218;51.408;7.208;2023-12-04T00:16:00;99521.16;;;16.86;31.22
4410;BME280;2218;51.408;7.208;2023-12-04T00:18:29;99522.00;;;16.87;31.09
4410;BME280;2218;51.408;7.208;2023-12-04T00:20:56;99521.25;;;16.85;30.97
4410;BME280;2218;51.408;7.208;2023-12-04T00:23:23;99524.81;;;16.84;30.89
4410;BME280;2218;51.408;7.208;2023-12-04T00:25:50;99526.69;;;16.82;30.96
4410;BME280;2218;51.408;7.208;2023-12-04T00:28:16;99521.44;;;16.82;31.06
4410;BME280;2218;51.408;7.208;2023-12-04T00:30:44;99518.91;;;16.80;31.00
4410;BME280;2218;51.408;7.208;2023-12-04T00:33:11;99521.63;;;16.78;30.97
4410;BME280;2218;51.408;7.208;2023-12-04T00:35:39;99526.88;;;16.78;30.96
4410;BME280;2218;51.408;7.208;2023-12-04T00:38:06;99526.03;;;16.78;30.88
4410;BME280;2218;51.408;7.208;2023-12-04T00:40:33;99520.06;;;16.76;31.05
4410;BME280;2218;51.408;7.208;2023-12-04T00:43:00;99513.19;;;16.73;30.91
4410;BME280;2218;51.408;7.208;2023-12-04T00:45:27;99509.63;;;16.74;30.79
4410;BME280;2218;51.408;7.208;2023-12-04T00:47:54;99513.19;;;16.73;31.11
4410;BME280;2218;51.408;7.208;2023-12-04T00:50:21;99505.47;;;16.70;31.09
4410;BME280;2218;51.408;7.208;2023-12-04T00:52:49;99513.34;;;16.70;30.84
4410;BME280;2218;51.408;7.208;2023-12-04T00:55:16;99503.78;;;16.69;30.93
4410;BME280;2218;51.408;7.208;2023-12-04T00:57:42;99504.75;;;16.68;30.88
4410;BME280;2218;51.408;7.208;2023-12-04T01:00:10;99500.31;;;16.69;30.79
4410;BME280;2218;51.408;7.208;2023-12-04T01:02:38;99499.50;;;16.68;30.96
4410;BME280;2218;51.408;7.208;2023-12-04T01:05:05;99491.63;;;16.68;30.65
4410;BME280;2218;51.408;7.208;2023-12-04T01:07:32;99486.47;;;16.67;30.91
4410;BME280;2218;51.408;7.208;2023-12-04T01:10:01;99483.09;;;16.65;31.03
4410;BME280;2218;51.408;7.208;2023-12-04T01:12:27;99492.75;;;16.64;30.77
4410;BME280;2218;51.408;7.208;2023-12-04T01:14:54;99480.56;;;16.63;30.84
4410;BME280;2218;51.408;7.208;2023-12-04T01:17:21;99481.50;;;16.62;30.93
4410;BME280;2218;51.408;7.208;2023-12-04T01:19:49;99478.03;;;16.62;30.96
4410;BME280;2218;51.408;7.208;2023-12-04T01:22:16;99477.22;;;16.61;30.80
4410;BME280;2218;51.408;7.208;2023-12-04T01:24:43;99478.13;;;16.60;30.99
4410;BME280;2218;51.408;7.208;2023-12-04T01:27:11;99471.19;;;16.59;31.05
4410;BME280;2218;51.408;7.208;2023-12-04T01:29:38;99471.19;;;16.59;30.95
4410;BME280;2218;51.408;7.208;2023-12-04T01:32:06;99467.72;;;16.59;30.73
4410;BME280;2218;51.408;7.208;2023-12-04T01:34:33;99467.34;;;16.65;30.83
4410;BME280;2218;51.408;7.208;2023-12-04T01:36:59;99466.09;;;16.70;30.42
4410;BME280;2218;51.408;7.208;2023-12-04T01:39:26;99465.78;;;16.76;30.80
4410;BME280;2218;51.408;7.208;2023-12-04T01:41:53;99462.78;;;16.83;30.51
4410;BME280;2218;51.408;7.208;2023-12-04T01:44:22;99459.00;;;16.87;30.33
4410;BME280;2218;51.408;7.208;2023-12-04T01:46:49;99460.59;;;16.89;30.23
4410;BME280;2218;51.408;7.208;2023-12-04T01:49:16;99458.72;;;16.91;30.51
4410;BME280;2218;51.408;7.208;2023-12-04T01:51:44;99448.00;;;16.94;30.50
4410;BME280;2218;51.408;7.208;2023-12-04T01:54:12;99440.06;;;16.96;30.11
4410;BME280;2218;51.408;7.208;2023-12-04T01:56:39;99437.34;;;16.97;30.23
4410;BME280;2218;51.408;7.208;2023-12-04T01:59:06;99434.59;;;16.99;30.14
4410;BME280;2218;51.408;7.208;2023-12-04T02:01:36;99429.25;;;17.00;30.07
4410;BME280;2218;51.408;7.208;2023-12-04T02:04:04;99433.56;;;17.01;29.83
4410;BME280;2218;51.408;7.208;2023-12-04T02:06:31;99428.22;;;17.03;29.87
4410;BME280;2218;51.408;7.208;2023-12-04T02:08:59;99431.69;;;17.03;29.86
4410;BME280;2218;51.408;7.208;2023-12-04T02:11:27;99430.66;;;17.06;30.01
4410;BME280;2218;51.408;7.208;2023-12-04T02:13:55;99429.72;;;17.07;30.10
4410;BME280;2218;51.408;7.208;2023-12-04T02:16:25;99436.63;;;17.08;29.98
4410;BME280;2218;51.408;7.208;2023-12-04T02:18:55;99434.00;;;17.08;29.83
4410;BME280;2218;51.408;7.208;2023-12-04T02:21:21;99427.81;;;17.09;29.71
4410;BME280;2218;51.408;7.208;2023-12-04T02:23:52;99428.56;;;17.11;29.82
4410;BME280;2218;51.408;7.208;2023-12-04T02:26:26;99429.41;;;17.12;29.81
4410;BME280;2218;51.408;7.208;2023-12-04T02:28:59;99434.66;;;17.12;29.82
4410;BME280;2218;51.408;7.208;2023-12-04T02:31:29;99426.69;;;17.13;29.60
4410;BME280;2218;51.408;7.208;2023-12-04T02:33:59;99427.53;;;17.14;29.49
4410;BME280;2218;51.408;7.208;2023-12-04T02:36:29;99423.09;;;17.14;29.31
4410;BME280;2218;51.408;7.208;2023-12-04T02:38:59;99417.84;;;17.14;29.39
4410;BME280;2218;51.408;7.208;2023-12-04T02:41:27;99408.13;;;17.16;29.68
4410;BME280;2218;51.408;7.208;2023-12-04T02:43:54;99409.03;;;17.15;29.34
4410;BME280;2218;51.408;7.208;2023-12-04T02:46:21;99410.75;;;17.16;29.41
4410;BME280;2218;51.408;7.208;2023-12-04T02:48:48;99410.63;;;17.18;29.40
4410;BME280;2218;51.408;7.208;2023-12-04T02:51:15;99406.22;;;17.18;29.56
4410;BME280;2218;51.408;7.208;2023-12-04T02:53:42;99406.22;;;17.18;29.37
4410;BME280;2218;51.408;7.208;2023-12-04T02:56:11;99401.69;;;17.20;29.28
4410;BME280;2218;51.408;7.208;2023-12-04T02:58:38;99397.31;;;17.21;28.71
4410;BME280;2218;51.408;7.208;2023-12-04T03:01:06;99392.06;;;17.21;29.14
4410;BME280;2218;51.408;7.208;2023-12-04T03:03:33;99399.81;;;17.22;29.25
4410;BME280;2218;51.408;7.208;2023-12-04T03:06:00;99391.09;;;17.22;29.42
4410;BME280;2218;51.408;7.208;2023-12-04T03:08:27;99391.00;;;17.23;29.20
4410;BME280;2218;51.408;7.208;2023-12-04T03:10:53;99387.53;;;17.23;29.31
4410;BME280;2218;51.408;7.208;2023-12-04T03:13:22;99391.84;;;17.24;29.16
4410;BME280;2218;51.408;7.208;2023-12-04T03:15:49;99385.75;;;17.23;29.16
4410;BME280;2218;51.408;7.208;2023-12-04T03:18:16;99387.44;;;17.24;29.03
4410;BME280;2218;51.408;7.208;2023-12-04T03:20:43;99382.09;;;17.26;29.27
4410;BME280;2218;51.408;7.208;2023-12-04T03:23:09;99378.50;;;17.27;28.96
4410;BME280;2218;51.408;7.208;2023-12-04T03:25:37;99375.88;;;17.27;29.03
4410;BME280;2218;51.408;7.208;2023-12-04T03:28:04;99376.72;;;17.27;28.94
4410;BME280;2218;51.408;7.208;2023-12-04T03:30:32;99366.22;;;17.27;29.02
4410;BME280;2218;51.408;7.208;2023-12-04T03:32:59;99365.16;;;17.30;28.65
4410;BME280;2218;51.408;7.208;2023-12-04T03:35:26;99359.06;;;17.29;28.87
4410;BME280;2218;51.408;7.208;2023-12-04T03:37:53;99359.91;;;17.30;28.79
4410;BME280;2218;51.408;7.208;2023-12-04T03:40:20;99352.03;;;17.30;28.76
4410;BME280;2218;51.408;7.208;2023-12-04T03:42:47;99360.66;;;17.32;28.73
4410;BME280;2218;51.408;7.208;2023-12-04T03:45:14;99356.25;;;17.33;28.83
4410;BME280;2218;51.408;7.208;2023-12-04T03:47:42;99354.56;;;17.31;28.72
4410;BME280;2218;51.408;7.208;2023-12-04T03:50:09;99339.53;;;17.34;28.46
4410;BME280;2218;51.408;7.208;2023-12-04T03:52:36;99341.34;;;17.33;28.57
4410;BME280;2218;51.408;7.208;2023-12-04T03:55:04;99332.50;;;17.34;28.56
4410;BME280;2218;51.408;7.208;2023-12-04T03:57:32;99336.81;;;17.35;28.70
4410;BME280;2218;51.408;7.208;2023-12-04T03:59:58;99331.56;;;17.35;28.50
4410;BME280;2218;51.408;7.208;2023-12-04T04:02:26;99327.16;;;17.36;28.49
4410;BME280;2218;51.408;7.208;2023-12-04T04:04:54;99325.25;;;17.38;28.52
4410;BME280;2218;51.408;7.208;2023-12-04T04:07:21;99327.16;;;17.36;28.54
4410;BME280;2218;51.408;7.208;2023-12-04T04:09:47;99325.38;;;17.36;28.65
4410;BME280;2218;51.408;7.208;2023-12-04T04:12:14;99318.34;;;17.37;28.44
4410;BME280;2218;51.408;7.208;2023-12-04T04:14:41;99320.00;;;17.38;28.46
4410;BME280;2218;51.408;7.208;2023-12-04T04:17:08;99317.38;;;17.38;28.18
4410;BME280;2218;51.408;7.208;2023-12-04T04:19:35;99307.72;;;17.38;28.29
4410;BME280;2218;51.408;7.208;2023-12-04T04:22:04;99309.50;;;17.38;28.42
4410;BME280;2218;51.408;7.208;2023-12-04T04:24:30;99304.97;;;17.40;28.34
4410;BME280;2218;51.408;7.208;2023-12-04T04:26:57;99310.22;;;17.40;28.37
4410;BME280;2218;51.408;7.208;2023-12-04T04:29:24;99300.69;;;17.39;27.96
4410;BME280;2218;51.408;7.208;2023-12-04T04:31:51;99303.19;;;17.40;28.22
4410;BME280;2218;51.408;7.208;2023-12-04T04:34:19;99295.22;;;17.42;28.32
4410;BME280;2218;51.408;7.208;2023-12-04T04:36:46;99292.69;;;17.40;28.18
4410;BME280;2218;51.408;7.208;2023-12-04T04:39:15;99292.59;;;17.42;28.23
4410;BME280;2218;51.408;7.208;2023-12-04T04:41:42;99296.91;;;17.43;28.20
4410;BME280;2218;51.408;7.208;2023-12-04T04:44:09;99292.47;;;17.43;28.21
4410;BME280;2218;51.408;7.208;2023-12-04T04:46:36;99291.66;;;17.43;27.93
4410;BME280;2218;51.408;7.208;2023-12-04T04:49:02;99290.81;;;17.42;28.16
4410;BME280;2218;51.408;7.208;2023-12-04T04:51:32;99287.22;;;17.43;27.98
4410;BME280;2218;51.408;7.208;2023-12-04T04:54:00;99286.38;;;17.43;27.89
4410;BME280;2218;51.408;7.208;2023-12-04T04:56:29;99281.13;;;17.43;28.34
4410;BME280;2218;51.408;7.208;2023-12-04T04:58:56;99277.56;;;17.44;27.98
4410;BME280;2218;51.408;7.208;2023-12-04T05:01:23;99288.06;;;17.44;28.01
4410;BME280;2218;51.408;7.208;2023-12-04T05:03:50;99284.50;;;17.45;28.23
4410;BME280;2218;51.408;7.208;2023-12-04T05:06:17;99283.66;;;17.44;27.76
4410;BME280;2218;51.408;7.208;2023-12-04T05:08:44;99276.59;;;17.45;27.90
4410;BME280;2218;51.408;7.208;2023-12-04T05:11:14;99275.69;;;17.46;27.89
4410;BME280;2218;51.408;7.208;2023-12-04T05:13:44;99269.47;;;17.47;27.60
4410;BME280;2218;51.408;7.208;2023-12-04T05:16:11;99271.03;;;17.49;27.72
4410;BME280;2218;51.408;7.208;2023-12-04T05:18:39;99265.69;;;17.51;27.72
4410;BME280;2218;51.408;7.208;2023-12-04T05:21:08;99265.59;;;17.52;27.72
4410;BME280;2218;51.408;7.208;2023-12-04T05:23:36;99261.06;;;17.54;27.59
4410;BME280;2218;51.408;7.208;2023-12-04T05:26:03;99258.34;;;17.56;27.29
4410;BME280;2218;51.408;7.208;2023-12-04T05:28:31;99252.13;;;17.57;27.64
4410;BME280;2218;51.408;7.208;2023-12-04T05:30:59;99261.69;;;17.58;27.38
4410;BME280;2218;51.408;7.208;2023-12-04T05:33:26;99266.75;;;17.61;27.67
4410;BME280;2218;51.408;7.208;2023-12-04T05:35:53;99255.28;;;17.62;27.59
4410;BME280;2218;51.408;7.208;2023-12-04T05:38:20;99249.06;;;17.63;27.34
4410;BME280;2218;51.408;7.208;2023-12-04T05:40:47;99247.28;;;17.64;27.51
4410;BME280;2218;51.408;7.208;2023-12-04T05:43:14;99248.13;;;17.64;27.30
4410;BME280;2218;51.408;7.208;2023-12-04T05:45:41;99237.59;;;17.64;27.27
4410;BME280;2218;51.408;7.208;2023-12-04T05:48:09;99234.91;;;17.66;27.84
4410;BME280;2218;51.408;7.208;2023-12-04T05:50:36;99232.16;;;17.67;27.61
4410;BME280;2218;51.408;7.208;2023-12-04T05:53:03;99221.63;;;17.67;27.47
4410;BME280;2218;51.408;7.208;2023-12-04T05:55:30;99226.91;;;17.67;27.56
4410;BME280;2218;51.408;7.208;2023-12-04T05:57:57;99226.91;;;17.67;27.32
4410;BME280;2218;51.408;7.208;2023-12-04T06:00:24;99220.81;;;17.67;27.73
4410;BME280;2218;51.408;7.208;2023-12-04T06:02:51;99229.53;;;17.67;27.30
4410;BME280;2218;51.408;7.208;2023-12-04T06:05:20;99237.41;;;17.67;27.54
4410;BME280;2218;51.408;7.208;2023-12-04T06:07:46;99246.13;;;17.68;27.38
4410;BME280;2218;51.408;7.208;2023-12-04T06:10:13;99247.91;;;17.67;27.33
4410;BME280;2218;51.408;7.208;2023-12-04T06:12:40;99242.66;;;17.67;27.64
4410;BME280;2218;51.408;7.208;2023-12-04T06:15:09;99241.00;;;17.66;27.81
4410;BME280;2218;51.408;7.208;2023-12-04T06:17:36;99243.63;;;17.66;27.17
4410;BME280;2218;51.408;7.208;2023-12-04T06:20:04;99245.41;;;17.66;27.65
4410;BME280;2218;51.408;7.208;2023-12-04T06:22:34;99243.63;;;17.66;27.51
4410;BME280;2218;51.408;7.208;2023-12-04T06:25:01;99247.09;;;17.67;27.35
4410;BME280;2218;51.408;7.208;2023-12-04T06:27:29;99248.75;;;17.68;27.58
4410;BME280;2218;51.408;7.208;2023-12-04T06:29:58;99248.75;;;17.68;27.47
4410;BME280;2218;51.408;7.208;2023-12-04T06:32:25;99238.25;;;17.68;27.32
4410;BME280;2218;51.408;7.208;2023-12-04T06:34:53;99229.41;;;17.69;27.17
4410;BME280;2218;51.408;7.208;2023-12-04T06:37:22;99225.00;;;17.69;27.19
4410;BME280;2218;51.408;7.208;2023-12-04T06:39:53;99209.22;;;17.69;26.92
4410;BME280;2218;51.408;7.208;2023-12-04T06:42:21;99200.41;;;17.70;27.23
4410;BME280;2218;51.408;7.208;2023-12-04T06:44:49;99193.38;;;17.71;27.20
4410;BME280;2218;51.408;7.208;2023-12-04T06:47:19;99196.84;;;17.71;27.52
4410;BME280;2218;51.408;7.208;2023-12-04T06:49:47;99201.13;;;17.72;27.01
4410;BME280;2218;51.408;7.208;2023-12-04T06:52:14;99199.38;;;17.73;27.11
4410;BME280;2218;51.408;7.208;2023-12-04T06:54:41;99191.38;;;17.74;27.10
4410;BME280;2218;51.408;7.208;2023-12-04T06:57:09;99183.50;;;17.74;27.24
4410;BME280;2218;51.408;7.208;2023-12-04T06:59:36;99182.56;;;17.75;27.13
4410;BME280;2218;51.408;7.208;2023-12-04T07:02:03;99179.94;;;17.75;26.87
4410;BME280;2218;51.408;7.208;2023-12-04T07:04:31;99176.34;;;17.76;27.32
4410;BME280;2218;51.408;7.208;2023-12-04T07:06:58;99163.22;;;17.76;27.03
4410;BME280;2218;51.408;7.208;2023-12-04T07:09:30;99162.25;;;17.77;26.70
4410;BME280;2218;51.408;7.208;2023-12-04T07:11:57;99163.94;;;17.78;26.98
4410;BME280;2218;51.408;7.208;2023-12-04T07:14:26;99161.31;;;17.78;27.23
4410;BME280;2218;51.408;7.208;2023-12-04T07:16:53;99158.56;;;17.80;26.54
4410;BME280;2218;51.408;7.208;2023-12-04T07:19:20;99159.41;;;17.80;27.25
4410;BME280;2218;51.408;7.208;2023-12-04T07:21:48;99150.56;;;17.81;26.97
4410;BME280;2218;51.408;7.208;2023-12-04T07:24:15;99143.66;;;17.80;26.89
4410;BME280;2218;51.408;7.208;2023-12-04T07:26:43;99146.16;;;17.82;26.90
4410;BME280;2218;51.408;7.208;2023-12-04T07:29:10;99148.91;;;17.80;26.86
4410;BME280;2218;51.408;7.208;2023-12-04T07:31:38;99142.78;;;17.80;26.86
4410;BME280;2218;51.408;7.208;2023-12-04T07:34:05;99139.22;;;17.81;26.94
4410;BME280;2218;51.408;7.208;2023-12-04T07:36:32;99137.44;;;17.81;26.93
4410;BME280;2218;51.408;7.208;2023-12-04T07:38:59;99135.75;;;17.80;26.78
4410;BME280;2218;51.408;7.208;2023-12-04T07:41:26;99134.81;;;17.81;26.66
4410;BME280;2218;51.408;7.208;2023-12-04T07:43:53;99135.75;;;17.80;26.82
4410;BME280;2218;51.408;7.208;2023-12-04T07:46:20;99123.47;;;17.81;26.83
4410;BME280;2218;51.408;7.208;2023-12-04T07:48:49;99124.28;;;17.81;26.60
4410;BME280;2218;51.408;7.208;2023-12-04T07:51:15;99120.84;;;17.81;26.75
4410;BME280;2218;51.408;7.208;2023-12-04T07:53:42;99130.38;;;17.82;27.15
4410;BME280;2218;51.408;7.208;2023-12-04T07:56:12;99119.03;;;17.81;26.99
4410;BME280;2218;51.408;7.208;2023-12-04T07:58:39;99113.78;;;17.81;27.04
4410;BME280;2218;51.408;7.208;2023-12-04T08:01:06;99112.94;;;17.81;26.80
4410;BME280;2218;51.408;7.208;2023-12-04T08:03:33;99112.94;;;17.81;27.17
4410;BME280;2218;51.408;7.208;2023-12-04T08:06:03;99104.09;;;17.82;26.99
4410;BME280;2218;51.408;7.208;2023-12-04T08:08:31;99098.00;;;17.81;27.18
4410;BME280;2218;51.408;7.208;2023-12-04T08:10:58;99093.59;;;17.82;27.34
4410;BME280;2218;51.408;7.208;2023-12-04T08:13:25;99091.91;;;17.81;27.23
4410;BME280;2218;51.408;7.208;2023-12-04T08:15:52;99094.44;;;17.82;27.19
4410;BME280;2218;51.408;7.208;2023-12-04T08:18:19;99087.50;;;17.81;27.11
4410;BME280;2218;51.408;7.208;2023-12-04T08:20:46;99087.50;;;17.81;27.32
4410;BME280;2218;51.408;7.208;2023-12-04T08:23:14;99088.34;;;17.82;27.04
4410;BME280;2218;51.408;7.208;2023-12-04T08:25:41;99091.78;;;17.82;27.44
4410;BME280;2218;51.408;7.208;2023-12-04T08:28:08;99093.59;;;17.82;27.27
4410;BME280;2218;51.408;7.208;2023-12-04T08:30:35;99089.16;;;17.82;27.50
4410;BME280;2218;51.408;7.208;2023-12-04T08:33:03;99084.75;;;17.83;27.50
4410;BME280;2218;51.408;7.208;2023-12-04T08:35:29;99090.84;;;17.83;27.26
4410;BME280;2218;51.408;7.208;2023-12-04T08:37:56;99082.00;;;17.85;27.54
4410;BME280;2218;51.408;7.208;2023-12-04T08:40:25;99086.41;;;17.84;27.50
4410;BME280;2218;51.408;7.208;2023-12-04T08:42:51;99078.44;;;17.86;27.47
4410;BME280;2218;51.408;7.208;2023-12-04T08:45:18;99083.69;;;17.86;27.47
4410;BME280;2218;51.408;7.208;2023-12-04T08:47:45;99090.63;;;17.87;27.52
4410;BME280;2218;51.408;7.208;2023-12-04T08:50:12;99077.47;;;17.87;27.75
4410;BME280;2218;51.408;7.208;2023-12-04T08:52:39;99078.31;;;17.87;27.62
4410;BME280;2218;51.408;7.208;2023-12-04T08:55:07;99076.53;;;17.88;27.27
4410;BME280;2218;51.408;7.208;2023-12-04T08:57:36;99069.59;;;17.87;27.70
4410;BME280;2218;51.408;7.208;2023-12-04T09:00:04;99066.84;;;17.88;27.50
4410;BME280;2218;51.408;7.208;2023-12-04T09:02:31;99066.84;;;17.88;27.53
4410;BME280;2218;51.408;7.208;2023-12-04T09:04:58;99072.09;;;17.88;27.37
4410;BME280;2218;51.408;7.208;2023-12-04T09:07:25;99069.34;;;17.90;27.62
4410;BME280;2218;51.408;7.208;2023-12-04T09:09:52;99064.09;;;17.90;27.35
4410;BME280;2218;51.408;7.208;2023-12-04T09:12:19;99065.88;;;17.89;27.55
4410;BME280;2218;51.408;7.208;2023-12-04T09:14:48;99061.47;;;17.90;27.20
4410;BME280;2218;51.408;7.208;2023-12-04T09:17:15;99059.72;;;17.90;27.29
4410;BME280;2218;51.408;7.208;2023-12-04T09:19:43;99055.28;;;17.91;27.65
4410;BME280;2218;51.408;7.208;2023-12-04T09:22:10;99050.03;;;17.91;27.21
4410;BME280;2218;51.408;7.208;2023-12-04T09:24:37;99044.78;;;17.91;27.44
4410;BME280;2218;51.408;7.208;2023-12-04T09:27:04;99047.28;;;17.92;27.51
4410;BME280;2218;51.408;7.208;2023-12-04T09:29:32;99029.84;;;17.91;27.72
4410;BME280;2218;51.408;7.208;2023-12-04T09:32:00;99036.88;;;17.91;27.53
4410;BME280;2218;51.408;7.208;2023-12-04T09:34:27;99038.69;;;17.90;27.40
4410;BME280;2218;51.408;7.208;2023-12-04T09:36:54;99041.19;;;17.92;27.67
4410;BME280;2218;51.408;7.208;2023-12-04T09:39:21;99028.03;;;17.92;27.88
4410;BME280;2218;51.408;7.208;2023-12-04T09:41:49;99032.34;;;17.93;27.56
4410;BME280;2218;51.408;7.208;2023-12-04T09:44:16;99022.78;;;17.92;27.66
4410;BME280;2218;51.408;7.208;2023-12-04T09:46:44;99016.56;;;17.93;27.47
4410;BME280;2218;51.408;7.208;2023-12-04T09:49:14;99010.47;;;17.92;27.28
4410;BME280;2218;51.408;7.208;2023-12-04T09:51:42;99005.22;;;17.92;27.70
4410;BME280;2218;51.408;7.208;2023-12-04T09:54:09;99000.78;;;17.93;27.91
4410;BME280;2218;51.408;7.208;2023-12-04T09:56:37;99003.41;;;17.93;27.61
4410;BME280;2218;51.408;7.208;2023-12-04T09:59:07;98999.84;;;17.94;27.55
4410;BME280;2218;51.408;7.208;2023-12-04T10:01:36;99005.09;;;17.94;28.08
4410;BME280;2218;51.408;7.208;2023-12-04T10:04:04;98998.16;;;17.93;27.52
4410;BME280;2218;51.408;7.208;2023-12-04T10:06:33;98991.94;;;17.94;28.20
4410;BME280;2218;51.408;7.208;2023-12-04T10:09:00;98989.31;;;17.94;27.43
4410;BME280;2218;51.408;7.208;2023-12-04T10:11:29;98992.78;;;17.94;27.79
4410;BME280;2218;51.408;7.208;2023-12-04T10:13:56;98991.00;;;17.95;27.84
4410;BME280;2218;51.408;7.208;2023-12-04T10:16:33;98992.69;;;17.96;27.79
4410;BME280;2218;51.408;7.208;2023-12-04T10:19:20;98977.84;;;17.95;27.69
4410;BME280;2218;51.408;7.208;2023-12-04T10:21:51;98977.84;;;17.95;27.53
4410;BME280;2218;51.408;7.208;2023-12-04T10:24:33;98969.03;;;17.96;27.92
4410;BME280;2218;51.408;7.208;2023-12-04T10:27:03;98960.31;;;17.95;27.82
4410;BME280;2218;51.408;7.208;2023-12-04T10:29:42;98955.88;;;17.96;27.94
4410;BME280;2218;51.408;7.208;2023-12-04T10:32:09;98947.03;;;17.97;27.97
4410;BME280;2218;51.408;7.208;2023-12-04T10:34:36;98957.56;;;17.97;28.08
4410;BME280;2218;51.408;7.208;2023-12-04T10:37:05;98947.16;;;17.95;27.82
4410;BME280;2218;51.408;7.208;2023-12-04T10:39:45;98948.72;;;17.98;28.00
4410;BME280;2218;51.408;7.208;2023-12-04T10:42:26;98938.19;;;17.98;27.73
4410;BME280;2218;51.408;7.208;2023-12-04T10:44:55;98932.94;;;17.98;27.73
4410;BME280;2218;51.408;7.208;2023-12-04T10:47:23;98938.19;;;17.98;27.78
4410;BME280;2218;51.408;7.208;2023-12-04T10:49:50;98932.81;;;17.99;28.01
4410;BME280;2218;51.408;7.208;2023-12-04T10:52:19;98918.81;;;17.99;27.42
4410;BME280;2218;51.408;7.208;2023-12-04T10:54:47;98921.47;;;17.99;27.49
4410;BME280;2218;51.408;7.208;2023-12-04T10:57:22;98921.47;;;17.99;27.89
4410;BME280;2218;51.408;7.208;2023-12-04T10:59:57;98920.50;;;18.00;27.68
4410;BME280;2218;51.408;7.208;2023-12-04T11:02:28;98917.03;;;17.99;27.99
4410;BME280;2218;51.408;7.208;2023-12-04T11:05:07;98907.34;;;18.00;27.32
4410;BME280;2218;51.408;7.208;2023-12-04T11:07:42;98906.53;;;17.99;27.91
4410;BME280;2218;51.408;7.208;2023-12-04T11:10:12;98893.38;;;17.99;27.79
4410;BME280;2218;51.408;7.208;2023-12-04T11:12:44;98903.78;;;18.01;27.91
4410;BME280;2218;51.408;7.208;2023-12-04T11:15:16;98893.28;;;18.01;27.81
4410;BME280;2218;51.408;7.208;2023-12-04T11:17:51;98887.19;;;18.00;27.81
4410;BME280;2218;51.408;7.208;2023-12-04T11:20:24;98891.59;;;18.00;27.67
4410;BME280;2218;51.408;7.208;2023-12-04T11:22:56;98885.38;;;18.01;27.92
4410;BME280;2218;51.408;7.208;2023-12-04T11:25:23;98883.59;;;18.01;27.87
4410;BME280;2218;51.408;7.208;2023-12-04T11:27:52;98880.97;;;18.01;27.73
4410;BME280;2218;51.408;7.208;2023-12-04T11:30:20;98881.94;;;18.00;27.75
4410;BME280;2218;51.408;7.208;2023-12-04T11:32:49;98883.59;;;18.01;27.84
4410;BME280;2218;51.408;7.208;2023-12-04T11:35:18;98883.59;;;18.01;28.10
4410;BME280;2218;51.408;7.208;2023-12-04T11:37:46;98880.84;;;18.03;27.99
4410;BME280;2218;51.408;7.208;2023-12-04T11:40:16;98881.81;;;18.02;27.88
4410;BME280;2218;51.408;7.208;2023-12-04T11:42:43;98878.22;;;18.03;27.87
4410;BME280;2218;51.408;7.208;2023-12-04T11:45:18;98888.72;;;18.03;27.92
4410;BME280;2218;51.408;7.208;2023-12-04T11:47:54;98881.81;;;18.02;27.95
4410;BME280;2218;51.408;7.208;2023-12-04T11:50:24;98875.59;;;18.03;27.93
4410;BME280;2218;51.408;7.208;2023-12-04T11:52:51;98875.59;;;18.03;27.91
4410;BME280;2218;51.408;7.208;2023-12-04T11:55:23;98878.22;;;18.03;27.81
4410;BME280;2218;51.408;7.208;2023-12-04T11:57:51;98867.69;;;18.03;28.01
4410;BME280;2218;51.408;7.208;2023-12-04T12:00:22;98862.44;;;18.03;27.83
4410;BME280;2218;51.408;7.208;2023-12-04T12:03:06;98863.28;;;18.03;27.74
4410;BME280;2218;51.408;7.208;2023-12-04T12:05:36;98865.91;;;18.03;27.91
4410;BME280;2218;51.408;7.208;2023-12-04T12:08:05;98861.47;;;18.04;28.06
4410;BME280;2218;51.408;7.208;2023-12-04T12:10:34;98850.97;;;18.04;27.83
4410;BME280;2218;51.408;7.208;2023-12-04T12:13:02;98859.81;;;18.03;27.89
4410;BME280;2218;51.408;7.208;2023-12-04T12:15:29;98859.81;;;18.03;28.36
4410;BME280;2218;51.408;7.208;2023-12-04T12:17:56;98857.06;;;18.04;28.05
4410;BME280;2218;51.408;7.208;2023-12-04T12:20:23;98843.06;;;18.04;28.09
4410;BME280;2218;51.408;7.208;2023-12-04T12:22:50;98844.03;;;18.03;28.20
4410;BME280;2218;51.408;7.208;2023-12-04T12:25:17;98839.59;;;18.03;28.24
4410;BME280;2218;51.408;7.208;2023-12-04T12:27:46;98832.56;;;18.04;28.11
4410;BME280;2218;51.408;7.208;2023-12-04T12:30:13;98834.34;;;18.03;28.32
4410;BME280;2218;51.408;7.208;2023-12-04T12:32:40;98829.94;;;18.04;28.22
4410;BME280;2218;51.408;7.208;2023-12-04T12:35:07;98825.50;;;18.04;28.20
4410;BME280;2218;51.408;7.208;2023-12-04T12:37:35;98814.16;;;18.04;28.28
4410;BME280;2218;51.408;7.208;2023-12-04T12:40:05;98810.56;;;18.05;27.97
4410;BME280;2218;51.408;7.208;2023-12-04T12:42:35;98798.38;;;18.04;28.40
4410;BME280;2218;51.408;7.208;2023-12-04T12:45:06;98799.22;;;18.04;28.37
4410;BME280;2218;51.408;7.208;2023-12-04T12:47:35;98792.16;;;18.05;28.46
4410;BME280;2218;51.408;7.208;2023-12-04T12:50:03;98787.88;;;18.04;28.57
4410;BME280;2218;51.408;7.208;2023-12-04T12:52:37;98780.81;;;18.04;28.55
4410;BME280;2218;51.408;7.208;2023-12-04T12:55:04;98785.13;;;18.05;28.77
4410;BME280;2218;51.408;7.208;2023-12-04T12:57:32;98776.38;;;18.05;28.82
4410;BME280;2218;51.408;7.208;2023-12-04T12:59:59;98775.44;;;18.06;28.74
4410;BME280;2218;51.408;7.208;2023-12-04T13:02:28;98761.47;;;18.05;28.89
4410;BME280;2218;51.408;7.208;2023-12-04T13:04:56;98770.19;;;18.06;29.20
4410;BME280;2218;51.408;7.208;2023-12-04T13:07:23;98764.09;;;18.05;29.20
4410;BME280;2218;51.408;7.208;2023-12-04T13:09:51;98771.84;;;18.07;29.04
4410;BME280;2218;51.408;7.208;2023-12-04T13:12:19;98768.25;;;18.08;29.10
4410;BME280;2218;51.408;7.208;2023-12-04T13:14:45;98768.25;;;18.08;29.31
4410;BME280;2218;51.408;7.208;2023-12-04T13:17:12;98761.22;;;18.08;29.39
4410;BME280;2218;51.408;7.208;2023-12-04T13:19:40;98754.16;;;18.09;29.47
4410;BME280;2218;51.408;7.208;2023-12-04T13:22:07;98754.16;;;18.09;29.27
4410;BME280;2218;51.408;7.208;2023-12-04T13:24:34;98751.44;;;18.11;29.53
4410;BME280;2218;51.408;7.208;2023-12-04T13:27:01;98739.13;;;18.11;29.73